Time;durP1;ratioP1;P1;durP2;ratioP2;P2;SDS_P1;SDS_P2;PMS_P1;PMS_P2;Temp;Humidity;BMP_temperature;BMP_pressure;BME280_temperature;BME280_humidity;BME280_pressure;Samples;Min_cycle;Max_cycle;Signal;HPM_P1;HPM_P2
2022/03/07 00:01:25;;;;;;;31.90;11.27;;;;;;;0.29;77.41;101480.78;5127329;56;1138880;-71
2022/03/07 00:06:31;;;;;;;29.17;11.00;;;;;;;0.32;77.72;101470.72;5146052;54;1138717;-71
2022/03/07 00:11:37;;;;;;;46.97;17.27;;;;;;;0.27;77.63;101464.78;5111459;56;1138818;-70
2022/03/07 00:16:43;;;;;;;53.83;16.70;;;;;;;0.29;77.93;101465.16;5111222;55;1176463;-69
2022/03/07 00:21:49;;;;;;;41.13;15.00;;;;;;;0.31;78.00;101464.66;5110899;55;1179599;-69
2022/03/07 00:26:55;;;;;;;51.48;16.35;;;;;;;0.33;78.05;101464.63;5111615;55;1138932;-71
2022/03/07 00:32:01;;;;;;;61.97;20.47;;;;;;;0.39;78.10;101468.87;5111314;55;1138902;-69
2022/03/07 00:37:08;;;;;;;48.00;16.73;;;;;;;0.39;77.99;101474.07;5145579;54;1138865;-69
2022/03/07 00:42:16;;;;;;;40.63;14.57;;;;;;;0.38;77.88;101469.75;5198200;54;1138652;-69
2022/03/07 00:47:21;;;;;;;41.00;14.13;;;;;;;0.33;77.90;101462.89;5198059;54;1138854;-71
2022/03/07 00:52:27;;;;;;;36.77;12.83;;;;;;;0.30;77.84;101460.37;5198051;55;1138821;-71
2022/03/07 00:57:34;;;;;;;27.40;9.43;;;;;;;0.28;77.79;101462.59;5198072;55;1138712;-69
2022/03/07 01:02:39;;;;;;;20.37;8.30;;;;;;;0.14;77.32;101455.52;5198263;54;1136657;-70
2022/03/07 01:07:46;;;;;;;21.67;8.47;;;;;;;0.05;77.60;101468.23;5196330;55;1136622;-69
2022/03/07 01:12:53;;;;;;;18.05;7.75;;;;;;;-0.10;77.50;101468.08;5196202;55;1136637;-71
2022/03/07 01:17:59;;;;;;;21.80;8.08;;;;;;;-0.17;78.13;101460.44;5195618;55;1138665;-69
2022/03/07 01:23:05;;;;;;;15.80;6.60;;;;;;;-0.18;78.22;101450.92;5195628;55;1138634;-69
2022/03/07 01:28:12;;;;;;;16.57;6.20;;;;;;;-0.20;78.48;101449.64;5195639;55;1138532;-69
2022/03/07 01:33:18;;;;;;;18.60;6.97;;;;;;;-0.19;78.51;101445.30;5195536;56;1138745;-71
2022/03/07 01:38:24;;;;;;;15.15;6.72;;;;;;;-0.25;78.34;101442.80;5139196;56;1138689;-68
2022/03/07 01:43:30;;;;;;;18.83;7.57;;;;;;;-0.38;78.30;101439.13;5108885;56;1138811;-69
2022/03/07 01:48:37;;;;;;;15.68;7.12;;;;;;;-0.45;78.87;101432.31;5108738;56;1138752;-69
2022/03/07 01:53:44;;;;;;;16.53;6.33;;;;;;;-0.41;79.34;101434.43;5128761;56;1138743;-71
2022/03/07 01:58:52;;;;;;;16.93;7.10;;;;;;;-0.44;79.14;101427.54;5109030;56;1138693;-70
2022/03/07 02:03:59;;;;;;;11.93;6.30;;;;;;;-0.54;79.35;101425.14;5109144;56;1138917;-69
2022/03/07 02:09:07;;;;;;;26.83;8.40;;;;;;;-0.54;79.35;101425.14;5108985;56;1138883;-69
2022/03/07 02:14:22;;;;;;;12.78;5.90;;;;;;;-0.65;79.60;101427.08;5108840;56;1138772;-70
2022/03/07 02:19:29;;;;;;;19.40;6.77;;;;;;;-0.76;80.24;101407.31;5101237;56;1138980;-69
2022/03/07 02:24:35;;;;;;;24.60;5.87;;;;;;;-0.75;80.93;101414.22;5099223;56;1138967;-70
2022/03/07 02:29:43;;;;;;;19.00;6.73;;;;;;;-0.74;81.25;101408.59;5094360;56;1139066;-69
2022/03/07 02:34:50;;;;;;;26.17;6.62;;;;;;;-0.65;81.93;101405.85;5063496;56;1138791;-71
2022/03/07 02:39:57;;;;;;;21.68;8.48;;;;;;;-0.51;82.43;101401.27;5191523;56;1138906;-70
2022/03/07 02:45:04;;;;;;;23.57;8.93;;;;;;;-0.43;82.37;101394.17;5195674;55;1138842;-69
2022/03/07 02:50:10;;;;;;;20.70;7.87;;;;;;;-0.33;82.67;101388.83;5195631;56;1139029;-69
2022/03/07 02:55:18;;;;;;;21.83;8.47;;;;;;;-0.25;82.89;101383.02;5195571;55;1138953;-69
2022/03/07 03:00:23;;;;;;;17.33;7.10;;;;;;;-0.21;82.86;101380.78;5195370;55;1138929;-71
2022/03/07 03:05:29;;;;;;;17.60;8.50;;;;;;;-0.16;82.99;101369.42;5195206;55;1138906;-71
2022/03/07 03:10:35;;;;;;;23.03;9.37;;;;;;;-0.13;82.94;101358.93;5195440;56;1138954;-70
2022/03/07 03:15:41;;;;;;;19.13;8.90;;;;;;;-0.10;82.77;101369.28;5195398;56;1138804;-69
2022/03/07 03:20:49;;;;;;;19.47;8.20;;;;;;;-0.09;82.64;101381.84;5195663;56;1138910;-69
2022/03/07 03:25:55;;;;;;;23.77;8.40;;;;;;;-0.16;82.42;101372.46;5195552;56;1138788;-71
2022/03/07 03:31:01;;;;;;;17.47;7.90;;;;;;;-0.20;82.41;101372.95;5195316;56;1138912;-70
2022/03/07 03:36:07;;;;;;;18.73;7.80;;;;;;;-0.23;82.57;101366.52;5178776;56;1138957;-71
2022/03/07 03:41:13;;;;;;;15.50;8.17;;;;;;;-0.25;82.63;101363.09;5108954;56;1138784;-71
2022/03/07 03:46:19;;;;;;;17.00;8.30;;;;;;;-0.23;82.87;101365.21;5102056;56;1138956;-71
2022/03/07 03:51:25;;;;;;;12.37;6.70;;;;;;;-0.30;82.17;101370.55;5099483;56;1138852;-70
2022/03/07 03:56:31;;;;;;;13.70;6.60;;;;;;;-0.41;82.30;101372.92;5099749;56;1139262;-69
2022/03/07 04:01:37;;;;;;;18.27;7.33;;;;;;;-0.43;82.54;101368.63;5099717;56;1139028;-71
2022/03/07 04:06:44;;;;;;;18.90;7.60;;;;;;;-0.53;82.53;101361.91;5099662;56;1138904;-70
2022/03/07 04:11:50;;;;;;;11.50;6.97;;;;;;;-0.47;82.41;101385.19;5109612;56;1138931;-69
2022/03/07 04:16:56;;;;;;;14.60;7.30;;;;;;;-0.50;82.35;101387.83;5109419;56;1138877;-69
2022/03/07 04:22:02;;;;;;;21.37;6.73;;;;;;;-0.52;82.29;101389.16;5109285;56;1138888;-70
2022/03/07 04:27:08;;;;;;;14.63;7.73;;;;;;;-0.55;82.24;101388.34;5108056;56;1138753;-70
2022/03/07 04:32:14;;;;;;;20.13;7.90;;;;;;;-0.59;82.20;101386.68;5108436;56;1138817;-69
2022/03/07 04:37:21;;;;;;;16.60;7.23;;;;;;;-0.67;81.83;101385.53;5083566;55;1138772;-71
2022/03/07 04:42:27;;;;;;;16.47;8.17;;;;;;;-0.73;82.00;101381.73;5054758;54;1138800;-70
2022/03/07 04:47:33;;;;;;;18.17;7.43;;;;;;;-0.82;81.89;101384.50;5055396;54;1139017;-71
2022/03/07 04:52:39;;;;;;;22.57;9.10;;;;;;;-0.86;82.10;101382.39;5054192;54;1138692;-72
2022/03/07 04:57:45;;;;;;;21.17;10.00;;;;;;;-0.86;82.46;101384.98;5054988;55;1138866;-71
2022/03/07 05:02:51;;;;;;;17.20;7.33;;;;;;;-0.89;82.28;101387.62;5055560;54;1140844;-69
2022/03/07 05:07:57;;;;;;;20.03;7.93;;;;;;;-0.89;82.23;101380.28;5054767;55;1139044;-69
2022/03/07 05:13:03;;;;;;;24.17;9.57;;;;;;;-0.93;82.09;101380.80;5050179;54;1138964;-69
2022/03/07 05:18:09;;;;;;;25.97;8.33;;;;;;;-1.09;82.18;101375.44;5042849;55;1138937;-72
2022/03/07 05:23:15;;;;;;;16.82;8.10;;;;;;;-1.34;82.60;101382.73;5042603;55;1138809;-71
2022/03/07 05:28:22;;;;;;;17.50;9.60;;;;;;;-1.61;83.27;101370.16;5035490;56;1138804;-68
2022/03/07 05:33:28;;;;;;;15.03;8.33;;;;;;;-1.84;84.31;101375.23;5033232;55;1138980;-71
2022/03/07 05:38:34;;;;;;;22.40;8.90;;;;;;;-1.90;86.77;101366.23;5046586;55;1138798;-71
2022/03/07 05:43:40;;;;;;;20.13;8.00;;;;;;;-1.90;88.21;101369.27;5050151;55;1232273;-69
2022/03/07 05:48:45;;;;;;;21.37;9.43;;;;;;;-1.92;89.11;101364.09;5051632;57;1138674;-69
2022/03/07 05:53:52;;;;;;;16.03;8.37;;;;;;;-1.89;89.53;101365.80;5051828;56;1138894;-72
2022/03/07 05:58:58;;;;;;;14.13;7.58;;;;;;;-1.88;90.21;101368.81;5051773;55;1139051;-70
2022/03/07 06:04:04;;;;;;;12.33;7.17;;;;;;;-1.89;90.87;101366.66;5050485;56;1139268;-70
2022/03/07 06:09:10;;;;;;;26.33;12.83;;;;;;;-1.97;95.58;101362.42;5050090;57;1138943;-70
2022/03/07 06:14:16;;;;;;;30.85;15.03;;;;;;;-2.04;95.88;101364.69;5093000;56;1140833;-70
2022/03/07 06:19:22;;;;;;;40.80;18.70;;;;;;;-2.00;99.37;101380.63;5153419;54;1140915;-71
2022/03/07 06:24:29;;;;;;;37.40;18.70;;;;;;;-1.90;98.04;101388.27;5180988;55;1140889;-72
2022/03/07 06:29:34;;;;;;;45.73;22.37;;;;;;;-1.84;100.00;101384.31;5194419;55;1140779;-71
2022/03/07 06:34:41;;;;;;;27.73;13.40;;;;;;;-1.79;100.00;101396.75;5166475;56;1142808;-68
2022/03/07 06:39:46;;;;;;;32.47;14.17;;;;;;;-1.65;100.00;101399.60;5171312;55;1142867;-71
2022/03/07 06:44:52;;;;;;;34.47;16.00;;;;;;;-1.58;100.00;101400.81;5195218;55;1142883;-71
2022/03/07 06:49:58;;;;;;;20.25;10.55;;;;;;;-1.58;100.00;101409.03;5196110;56;1142911;-75
2022/03/07 06:55:04;;;;;;;31.30;14.10;;;;;;;-1.54;100.00;101413.31;5184896;54;1142973;-71
2022/03/07 07:00:15;;;;;;;15.97;8.60;;;;;;;-1.51;100.00;101417.13;5109309;55;1143191;-74
2022/03/07 07:05:21;;;;;;;23.87;12.03;;;;;;;-1.42;100.00;101419.62;5109617;55;1140964;-72
2022/03/07 07:10:27;;;;;;;15.03;8.87;;;;;;;-1.38;100.00;101424.33;5109288;55;1143101;-69
2022/03/07 07:15:33;;;;;;;17.10;8.43;;;;;;;-1.34;100.00;101416.90;5109337;56;1140973;-69
2022/03/07 07:20:38;;;;;;;24.43;12.47;;;;;;;-1.28;100.00;101418.98;5109162;55;1140830;-70
2022/03/07 07:25:44;;;;;;;39.70;16.60;;;;;;;-1.22;100.00;101418.87;5108631;56;1142957;-70
2022/03/07 07:30:50;;;;;;;24.97;13.23;;;;;;;-1.14;100.00;101421.36;5108963;56;1142951;-70
2022/03/07 07:35:56;;;;;;;17.05;8.50;;;;;;;-1.01;100.00;101420.29;5109599;56;1143083;-72
2022/03/07 07:41:02;;;;;;;22.25;9.85;;;;;;;-0.89;100.00;101418.79;5118899;56;1140904;-68
2022/03/07 07:46:08;;;;;;;18.53;9.03;;;;;;;-0.75;100.00;101415.96;5117980;56;1141189;-72
2022/03/07 07:51:15;;;;;;;61.13;28.37;;;;;;;-0.64;100.00;101410.16;5126862;55;1141020;-68
2022/03/07 07:56:22;;;;;;;25.67;14.77;;;;;;;-0.51;100.00;101413.41;5172367;55;1143197;-73
2022/03/07 08:01:29;;;;;;;38.63;18.30;;;;;;;-0.42;100.00;101412.78;5185096;56;1143058;-74
2022/03/07 08:06:36;;;;;;;34.10;18.30;;;;;;;-0.32;100.00;101403.53;5185362;56;1143216;-68
2022/03/07 08:11:42;;;;;;;24.27;12.33;;;;;;;-0.23;100.00;101405.95;5185573;56;1143012;-70
2022/03/07 08:16:48;;;;;;;25.37;11.33;;;;;;;-0.10;100.00;101401.78;5185385;56;1143259;-70
2022/03/07 08:21:54;;;;;;;21.83;12.03;;;;;;;0.03;100.00;101404.98;5153813;54;1143038;-71
2022/03/07 08:27:00;;;;;;;24.50;11.25;;;;;;;0.29;100.00;101396.66;5196546;55;1141078;-70
2022/03/07 08:32:06;;;;;;;17.90;10.70;;;;;;;0.55;100.00;101394.78;5185957;54;1140923;-69
2022/03/07 08:37:12;;;;;;;24.83;10.70;;;;;;;0.89;100.00;101396.17;5165978;55;1141115;-73
2022/03/07 08:42:19;;;;;;;22.60;12.70;;;;;;;0.98;100.00;101390.28;5155605;54;1140894;-71
2022/03/07 08:47:25;;;;;;;24.70;11.13;;;;;;;1.12;100.00;101397.76;5168878;55;1141325;-73
2022/03/07 08:52:30;;;;;;;26.23;13.40;;;;;;;1.48;100.00;101382.95;5120886;54;1141008;-69
2022/03/07 08:57:36;;;;;;;21.13;12.27;;;;;;;1.88;100.00;101377.94;5120683;54;1141048;-70
2022/03/07 09:02:42;;;;;;;20.43;9.27;;;;;;;2.10;100.00;101381.22;5120385;55;1140960;-70
2022/03/07 09:07:48;;;;;;;16.90;8.13;;;;;;;2.11;100.00;101372.48;5120912;54;1138880;-71
2022/03/07 09:12:54;;;;;;;22.57;11.27;;;;;;;2.14;100.00;101372.00;5152839;55;1226612;-70
2022/03/07 09:18:00;;;;;;;18.40;10.18;;;;;;;2.33;100.00;101374.00;5185462;55;1141086;-69
2022/03/07 09:23:06;;;;;;;23.25;12.25;;;;;;;2.59;100.00;101381.51;5184006;55;1141055;-73
2022/03/07 09:28:12;;;;;;;27.10;13.70;;;;;;;2.78;100.00;101378.70;5183986;56;1141028;-71
2022/03/07 09:33:18;;;;;;;26.97;13.30;;;;;;;2.85;100.00;101380.23;5162856;56;1141209;-72
2022/03/07 09:38:27;;;;;;;13.57;8.03;;;;;;;3.02;100.00;101383.16;5119501;56;1141096;-72
2022/03/07 09:43:33;;;;;;;26.10;10.53;;;;;;;3.31;99.18;101373.48;5108227;56;1138894;-71
2022/03/07 09:48:39;;;;;;;23.73;9.97;;;;;;;3.35;97.95;101375.10;5183272;55;1138816;-72
2022/03/07 09:53:45;;;;;;;23.03;9.27;;;;;;;3.30;98.08;101385.70;5149325;56;1136810;-70
2022/03/07 09:58:50;;;;;;;14.70;8.77;;;;;;;3.55;98.47;101388.33;5194543;56;1137021;-71
2022/03/07 10:04:09;;;;;;;11.83;7.60;;;;;;;3.74;96.40;101379.38;5160934;55;1136786;-71
2022/03/07 10:14:14;;;;;;;19.17;10.10;;;;;;;4.25;95.48;101376.63;5297527;55;47475;-70
2022/03/07 10:19:19;;;;;;;12.13;7.63;;;;;;;4.38;95.43;101368.70;5018516;56;1134507;-68
2022/03/07 10:24:37;;;;;;;16.40;9.93;;;;;;;4.55;92.31;101361.50;5072268;56;1136570;-70
2022/03/07 10:29:49;;;;;;;16.57;9.17;;;;;;;4.69;92.68;101372.29;5075149;56;1136633;-71
2022/03/07 10:34:55;;;;;;;21.37;9.37;;;;;;;4.88;91.84;101368.48;5098081;56;1136757;-70
2022/03/07 10:40:01;;;;;;;15.15;7.50;;;;;;;4.93;89.59;101368.67;5019194;57;1137306;-70
2022/03/07 10:45:09;;;;;;;16.43;9.17;;;;;;;5.11;87.49;101369.69;4985223;57;1136769;-71
2022/03/07 10:50:14;;;;;;;21.93;10.97;;;;;;;5.34;88.87;101352.16;5097381;57;1136613;-70
2022/03/07 10:55:29;;;;;;;17.33;9.07;;;;;;;5.64;88.96;101346.89;4945244;57;1138763;-72
2022/03/07 11:00:37;;;;;;;11.43;6.60;;;;;;;5.73;86.30;101345.16;5011224;58;1136686;-71
2022/03/07 11:05:44;;;;;;;15.00;7.77;;;;;;;5.94;85.40;101340.77;4871897;57;1136853;-72
2022/03/07 11:10:53;;;;;;;9.83;5.80;;;;;;;6.15;83.80;101337.14;5005273;57;1155898;-71
2022/03/07 11:16:03;;;;;;;18.67;10.23;;;;;;;6.35;81.94;101337.53;5098248;55;1134972;-71
2022/03/07 11:21:10;;;;;;;26.23;11.27;;;;;;;6.64;82.18;101328.27;5090240;56;1138967;-70
2022/03/07 11:26:20;;;;;;;21.73;10.63;;;;;;;6.87;81.13;101309.59;5062328;55;1138742;-70
2022/03/07 11:31:26;;;;;;;18.87;7.20;;;;;;;7.09;79.27;101316.39;5205295;55;1138992;-70
2022/03/07 11:36:32;;;;;;;12.90;4.50;;;;;;;7.32;79.16;101310.83;5080923;55;1136786;-70
2022/03/07 11:41:40;;;;;;;8.63;3.20;;;;;;;7.56;76.58;101304.28;5117901;56;1136915;-70
2022/03/07 11:46:51;;;;;;;4.00;2.47;;;;;;;7.76;75.88;101299.28;5047404;56;1134693;-70
2022/03/07 11:52:02;;;;;;;3.17;1.92;;;;;;;7.93;68.07;101299.23;5068250;55;1134821;-71
2022/03/07 11:57:13;;;;;;;4.53;2.22;;;;;;;8.05;72.19;101297.25;5097139;56;1134899;-70
2022/03/07 12:02:19;;;;;;;3.90;2.43;;;;;;;8.03;71.45;101292.52;5117908;56;1134708;-71
2022/03/07 12:07:28;;;;;;;5.07;2.40;;;;;;;8.07;69.52;101295.38;5011083;58;1134710;-71
2022/03/07 12:12:34;;;;;;;9.90;4.47;;;;;;;8.33;67.86;101286.52;4941547;58;1134747;-70
2022/03/07 12:17:39;;;;;;;7.20;1.53;;;;;;;8.42;64.51;101282.04;4940018;57;1134738;-70
2022/03/07 12:36:16;;;;;;;5.10;2.33;;;;;;;8.57;63.14;101280.31;5205746;54;46980;-71
2022/03/07 12:41:34;;;;;;;3.60;2.03;;;;;;;8.72;59.63;101282.08;4973418;57;1130645;-70
2022/03/07 12:46:39;;;;;;;3.53;1.50;;;;;;;8.98;59.23;101264.28;4915225;57;1134744;-70
2022/03/07 12:51:46;;;;;;;13.45;3.95;;;;;;;9.27;59.92;101282.34;4962124;57;1134657;-71
2022/03/07 12:56:52;;;;;;;3.27;1.87;;;;;;;9.26;59.20;101283.28;5053657;56;1136772;-70
2022/03/07 13:01:58;;;;;;;3.17;1.70;;;;;;;9.39;59.96;101278.95;5083468;56;1134644;-70
2022/03/07 13:07:15;;;;;;;18.70;4.37;;;;;;;9.25;57.50;101286.00;4896548;57;1134814;-71
2022/03/07 13:12:20;;;;;;;10.98;3.33;;;;;;;9.16;61.01;101280.34;4839267;58;1136677;-71
2022/03/07 13:17:26;;;;;;;9.53;2.87;;;;;;;9.27;58.70;101273.56;4873146;57;1136871;-71
2022/03/07 13:22:31;;;;;;;4.70;3.07;;;;;;;8.92;60.20;101261.14;5054084;57;1134621;-70
2022/03/07 13:27:47;;;;;;;8.83;2.60;;;;;;;8.81;59.29;101290.33;5047116;56;1134833;-70
2022/03/07 13:32:52;;;;;;;4.33;2.40;;;;;;;8.62;58.93;101287.50;5019733;57;1134568;-71
2022/03/07 13:37:59;;;;;;;7.70;3.30;;;;;;;8.53;59.96;101288.05;5033182;56;1134639;-69
2022/03/07 13:43:06;;;;;;;9.37;5.00;;;;;;;8.41;60.79;101287.78;5025909;56;1134696;-71
2022/03/07 13:48:15;;;;;;;6.55;3.67;;;;;;;8.28;61.42;101292.47;5043142;56;1134859;-70
2022/03/07 13:53:22;;;;;;;17.57;4.12;;;;;;;8.20;61.60;101294.70;4985564;56;1134764;-71
2022/03/07 13:58:36;;;;;;;7.23;3.47;;;;;;;8.13;62.18;101294.17;4924158;57;1136783;-71
2022/03/07 14:03:41;;;;;;;;;;;;;;;8.10;62.60;101285.97;4905412;58;1134783;-72
2022/03/07 14:08:47;;;;;;;8.07;2.47;;;;;;;8.06;61.59;101287.09;4909345;58;972392;-71
2022/03/07 14:13:56;;;;;;;6.95;2.98;;;;;;;8.12;62.97;101289.37;4889653;57;1132630;-71
2022/03/07 14:19:02;;;;;;;26.23;16.00;;;;;;;8.16;63.44;101288.73;4850219;58;1134636;-70
2022/03/07 14:24:08;;;;;;;17.00;15.17;;;;;;;8.15;61.92;101294.09;4845969;58;1138936;-71
2022/03/07 14:29:15;;;;;;;5.90;3.33;;;;;;;8.21;63.63;101289.81;4877511;57;1139072;-71
2022/03/07 14:34:21;;;;;;;16.48;8.00;;;;;;;8.40;63.92;101295.30;4866992;58;1134669;-71
2022/03/07 14:39:26;;;;;;;11.60;5.87;;;;;;;8.43;63.13;101290.33;4851757;58;1136767;-71
2022/03/07 14:44:32;;;;;;;606.80;366.37;;;;;;;8.35;63.39;101297.37;4855732;58;1136827;-71
2022/03/07 14:49:39;;;;;;;386.47;211.60;;;;;;;8.17;61.10;101291.76;4855521;58;1143037;-71
2022/03/07 14:54:45;;;;;;;397.03;196.37;;;;;;;8.11;62.65;101284.18;4916688;59;1142964;-71
2022/03/07 14:59:50;;;;;;;441.97;266.67;;;;;;;8.08;61.13;101276.01;4933806;56;1143030;-71
2022/03/07 15:04:56;;;;;;;369.82;244.53;;;;;;;8.17;63.24;101279.05;4937061;56;1143206;-71
2022/03/07 15:10:03;;;;;;;250.97;64.67;;;;;;;8.32;62.24;101284.82;4806870;57;1142991;-71
2022/03/07 15:15:09;;;;;;;94.73;22.60;;;;;;;8.22;61.07;101284.93;4839873;57;1141109;-71
2022/03/07 15:20:15;;;;;;;43.98;13.85;;;;;;;8.21;63.15;101290.66;4937896;57;1138997;-71
2022/03/07 15:25:21;;;;;;;13.10;7.05;;;;;;;8.25;62.75;101286.08;4955804;57;1138921;-71
2022/03/07 15:30:27;;;;;;;15.83;5.90;;;;;;;8.15;62.05;101290.14;5008625;57;1136798;-71
2022/03/07 15:35:33;;;;;;;14.03;5.57;;;;;;;7.94;62.24;101285.13;4840177;58;1136777;-71
2022/03/07 15:40:41;;;;;;;18.10;5.17;;;;;;;7.89;63.24;101290.25;4870573;58;1136789;-70
2022/03/07 15:45:47;;;;;;;6.03;3.27;;;;;;;8.03;63.75;101287.72;4895287;58;1136695;-71
2022/03/07 15:50:59;;;;;;;7.93;3.60;;;;;;;8.19;62.73;101282.45;5006500;57;1134763;-71
2022/03/07 15:56:06;;;;;;;17.87;8.17;;;;;;;8.28;62.43;101282.78;5172449;55;1134578;-72
2022/03/07 16:01:12;;;;;;;24.42;9.82;;;;;;;8.40;63.10;101274.72;5175437;55;1136665;-72
2022/03/07 16:06:19;;;;;;;35.13;15.10;;;;;;;9.07;63.43;101271.64;4978829;57;1136775;-72
2022/03/07 16:11:25;;;;;;;31.65;11.20;;;;;;;10.41;62.91;101275.66;5130934;55;1140890;-70
2022/03/07 16:16:37;;;;;;;18.50;7.63;;;;;;;10.16;60.54;101277.68;5227827;55;1142988;-72
2022/03/07 16:21:43;;;;;;;23.80;7.03;;;;;;;9.37;59.54;101290.54;5199957;55;1140998;-71
2022/03/07 16:26:49;;;;;;;17.77;8.53;;;;;;;8.74;61.00;101296.02;5074403;56;1136840;-70
2022/03/07 16:31:54;;;;;;;32.50;15.40;;;;;;;8.33;61.63;101307.61;5150605;56;1136908;-72
2022/03/07 16:37:00;;;;;;;41.93;17.23;;;;;;;8.01;62.46;101313.29;5197210;55;1138963;-73
2022/03/07 16:42:06;;;;;;;51.10;19.43;;;;;;;7.75;62.96;101326.08;5196822;55;1161959;-71
2022/03/07 16:47:12;;;;;;;48.14;19.64;;;;;;;7.62;63.92;101335.56;5197032;55;1138790;-71
2022/03/07 16:52:18;;;;;;;99.03;38.45;;;;;;;7.43;64.10;101344.48;5192442;55;1138965;-71
2022/03/07 16:57:24;;;;;;;90.93;34.00;;;;;;;7.36;64.78;101348.73;5177732;55;1138960;-72
2022/03/07 17:02:30;;;;;;;83.50;32.57;;;;;;;7.20;64.65;101354.84;5061447;56;1138951;-72
2022/03/07 17:07:36;;;;;;;82.65;32.83;;;;;;;7.12;65.49;101359.19;5087132;56;1138729;-71
2022/03/07 17:12:43;;;;;;;91.87;36.23;;;;;;;7.09;65.71;101364.59;5091775;56;1139023;-71
2022/03/07 17:17:49;;;;;;;108.67;49.13;;;;;;;7.06;66.17;101370.00;5099788;56;1138850;-71
2022/03/07 17:22:55;;;;;;;100.07;42.73;;;;;;;6.98;66.21;101373.03;5110051;55;1141213;-70
2022/03/07 17:28:00;;;;;;;97.90;35.20;;;;;;;6.82;66.14;101376.47;5119123;56;1141040;-70
2022/03/07 17:33:06;;;;;;;101.80;32.47;;;;;;;6.63;66.41;101381.29;5164639;55;1138719;-70
2022/03/07 17:38:12;;;;;;;162.50;50.30;;;;;;;6.48;66.47;101389.05;5043832;57;1150101;-71
2022/03/07 17:43:18;;;;;;;120.70;41.70;;;;;;;6.30;66.52;101386.34;5043714;57;1141180;-70
2022/03/07 17:48:24;;;;;;;105.65;41.92;;;;;;;6.16;66.72;101386.13;5043830;57;1140982;-71
2022/03/07 17:53:29;;;;;;;116.57;44.75;;;;;;;5.95;66.75;101389.73;5141991;55;1140893;-71
2022/03/07 17:58:36;;;;;;;121.57;49.90;;;;;;;5.82;67.22;101397.23;5196672;55;1141220;-70
2022/03/07 18:03:42;;;;;;;98.23;39.70;;;;;;;5.76;67.60;101405.86;5228279;55;1140876;-71
2022/03/07 18:08:47;;;;;;;118.90;45.60;;;;;;;5.75;67.97;101418.12;5222352;55;1138866;-70
2022/03/07 18:13:54;;;;;;;152.57;55.97;;;;;;;5.81;68.28;101419.61;5074074;56;1141147;-70
2022/03/07 18:19:00;;;;;;;199.00;68.23;;;;;;;5.80;68.22;101431.92;5164943;55;1141116;-69
2022/03/07 18:24:07;;;;;;;226.67;80.47;;;;;;;5.79;68.44;101433.30;5135740;56;1141161;-71
2022/03/07 18:29:13;;;;;;;163.45;59.77;;;;;;;5.68;68.51;101432.42;5140714;56;1140868;-71
2022/03/07 18:34:19;;;;;;;127.00;49.32;;;;;;;5.56;68.66;101443.44;5059306;56;1141218;-71
2022/03/07 18:39:25;;;;;;;329.32;105.72;;;;;;;5.47;69.01;101449.09;5055581;56;1141041;-71
2022/03/07 18:44:30;;;;;;;452.87;135.60;;;;;;;5.34;68.87;101453.14;5055270;56;1143016;-71
2022/03/07 18:49:36;;;;;;;448.43;144.33;;;;;;;5.26;69.11;101460.84;5055462;56;1142950;-71
2022/03/07 18:54:42;;;;;;;335.70;106.60;;;;;;;5.16;69.15;101462.14;5055270;56;1143075;-71
2022/03/07 18:59:47;;;;;;;175.90;60.23;;;;;;;5.10;69.39;101465.45;5093465;55;1142987;-69
2022/03/07 19:04:53;;;;;;;115.33;39.73;;;;;;;5.02;69.54;101468.39;5101110;55;1141077;-71
2022/03/07 19:09:59;;;;;;;136.93;49.97;;;;;;;4.97;69.81;101479.51;5105650;56;1140873;-71
2022/03/07 19:15:07;;;;;;;109.03;39.05;;;;;;;4.89;69.96;101494.20;5002330;57;1140974;-72
2022/03/07 19:20:16;;;;;;;97.87;41.17;;;;;;;4.87;70.34;101501.30;5112009;55;1140865;-68
2022/03/07 19:25:21;;;;;;;93.07;40.63;;;;;;;4.78;70.20;101505.56;4875256;57;1138798;-72
2022/03/07 19:30:28;;;;;;;107.37;39.20;;;;;;;4.72;70.55;101510.20;4854057;58;1138767;-71
2022/03/07 19:35:33;;;;;;;97.87;36.77;;;;;;;4.64;70.62;101515.70;4818920;60;1140952;-71
2022/03/07 19:40:39;;;;;;;114.40;38.87;;;;;;;4.56;70.77;101525.63;4893897;58;1138917;-69
2022/03/07 19:45:47;;;;;;;64.53;24.43;;;;;;;4.41;70.81;101527.50;4890744;58;1141418;-69
2022/03/07 19:50:53;;;;;;;66.87;24.07;;;;;;;4.26;70.93;101535.45;4897975;57;1138942;-71
2022/03/07 19:55:59;;;;;;;67.87;23.23;;;;;;;4.17;71.27;101537.06;4913640;57;1138838;-69
2022/03/07 20:01:07;;;;;;;124.70;37.60;;;;;;;4.12;71.57;101535.93;4936375;58;1139133;-70
2022/03/07 20:06:13;;;;;;;147.70;46.80;;;;;;;4.06;71.69;101540.52;4892594;58;1150768;-71
2022/03/07 20:11:19;;;;;;;84.87;28.57;;;;;;;3.97;71.89;101560.02;4954767;57;1141002;-70
2022/03/07 20:16:27;;;;;;;75.12;27.85;;;;;;;3.90;72.02;101574.20;4981363;57;1138931;-72
2022/03/07 20:21:33;;;;;;;104.47;36.63;;;;;;;3.89;72.39;101585.56;5075384;56;1138930;-73
2022/03/07 20:26:39;;;;;;;105.15;40.92;;;;;;;3.85;72.39;101587.88;5043110;56;1141223;-71
2022/03/07 20:31:45;;;;;;;159.63;59.93;;;;;;;3.82;72.76;101588.83;4965419;56;1140931;-72
2022/03/07 20:36:51;;;;;;;192.17;66.10;;;;;;;3.83;73.00;101598.39;4946901;58;1140865;-72
2022/03/07 20:41:58;;;;;;;281.03;95.40;;;;;;;3.83;73.02;101600.15;4872908;58;1140797;-70
2022/03/07 20:47:05;;;;;;;238.50;82.80;;;;;;;3.78;73.11;101599.02;4946979;58;1141165;-72
2022/03/07 20:52:12;;;;;;;117.60;42.93;;;;;;;3.71;73.02;101597.48;4921625;57;1140908;-69
2022/03/07 20:57:18;;;;;;;67.53;27.00;;;;;;;3.47;72.70;101591.28;5021601;56;1256885;-71
2022/03/07 21:02:23;;;;;;;54.73;24.80;;;;;;;3.44;73.37;101584.83;4992825;57;1138922;-68
2022/03/07 21:07:29;;;;;;;59.58;22.93;;;;;;;3.38;73.41;101581.08;5004266;57;1139083;-67
2022/03/07 21:12:35;;;;;;;52.57;20.87;;;;;;;3.32;73.75;101585.22;5003859;57;1138963;-73
2022/03/07 21:17:41;;;;;;;66.17;25.50;;;;;;;3.30;74.05;101579.63;5077803;56;1138798;-73
2022/03/07 21:22:47;;;;;;;85.30;29.00;;;;;;;3.24;74.00;101583.27;5056412;55;1138991;-69
2022/03/07 21:27:53;;;;;;;71.23;27.17;;;;;;;3.17;73.97;101585.68;4999506;57;1138796;-72
2022/03/07 21:32:58;;;;;;;79.33;27.80;;;;;;;2.70;73.25;101590.52;4964646;57;1138849;-72
2022/03/07 21:38:04;;;;;;;118.27;37.60;;;;;;;2.70;73.25;101590.52;4937339;58;1139016;-70
2022/03/07 21:43:10;;;;;;;193.87;57.47;;;;;;;2.53;73.78;101599.72;4947369;57;1141267;-70
2022/03/07 21:48:15;;;;;;;144.40;48.70;;;;;;;2.51;74.56;101604.12;4941016;57;1141451;-73
2022/03/07 21:53:21;;;;;;;143.60;48.70;;;;;;;2.53;74.83;101602.33;4885708;57;1141107;-70
2022/03/07 21:58:27;;;;;;;137.60;46.37;;;;;;;2.53;75.26;101607.55;4892237;58;1141300;-69
2022/03/07 22:03:32;;;;;;;137.73;47.63;;;;;;;2.53;75.32;101617.55;5007454;57;1141063;-72
2022/03/07 22:08:39;;;;;;;129.47;45.33;;;;;;;2.39;74.67;101614.45;4968344;56;1141099;-71
2022/03/07 22:13:45;;;;;;;127.00;42.80;;;;;;;2.25;74.64;101608.28;4965177;56;1141151;-70
2022/03/07 22:18:51;;;;;;;123.53;46.97;;;;;;;2.14;75.17;101605.55;4967031;57;1140964;-72
2022/03/07 22:23:58;;;;;;;141.60;52.20;;;;;;;2.16;75.42;101607.20;4970222;57;1141150;-68
2022/03/07 22:29:04;;;;;;;149.87;47.67;;;;;;;2.17;75.71;101599.78;4974611;57;1141017;-72
2022/03/07 22:34:10;;;;;;;147.87;51.83;;;;;;;2.15;75.56;101600.70;5051050;56;1140937;-70
2022/03/07 22:39:16;;;;;;;172.07;59.27;;;;;;;2.13;76.05;101593.39;5052582;57;1141258;-69
2022/03/07 22:44:22;;;;;;;174.83;69.70;;;;;;;2.10;76.15;101599.55;4945110;57;1141043;-71
2022/03/07 22:49:28;;;;;;;170.80;65.12;;;;;;;2.11;76.31;101599.95;4974224;58;1141269;-68
2022/03/07 22:54:34;;;;;;;196.77;70.60;;;;;;;2.04;75.68;101600.55;5030086;57;1141138;-70
2022/03/07 22:59:39;;;;;;;212.47;73.37;;;;;;;1.88;75.54;101603.13;4951228;57;1141115;-72
2022/03/07 23:10:09;;;;;;;208.40;82.70;;;;;;;1.75;76.08;101619.97;5028086;57;1141267;-73
2022/03/07 23:15:15;;;;;;;205.60;73.80;;;;;;;1.70;76.05;101620.06;4952498;57;1141073;-70
2022/03/07 23:20:20;;;;;;;209.07;71.90;;;;;;;1.65;75.84;101627.16;5101874;56;1141056;-72